sim
Sign-in with your pilot id or email,
or register
Callsign
Passwort

Schedule Details

Flight Number: OEO7804
Departure: Paris Charles de Gaulle Airport (LFPG) at 16:45
Arrival: Delhi Indira Gandhi International Airport (VIDP) at 00:50

Weather Information
Getting current METAR information for LFPG 312230Z 30005KT 9999 FEW013 SCT017 BKN030 14/11 Q1017 NOSIG
Getting current METAR information for VIDP 312230Z 00000KT 1200 R28/P2000 R29/P2000 FU NSC 17/11 Q1013 NOSIG

Schedule Frequency

Route Map